createdAt,value
2018-05-25T00:01:31.965Z,100692.77
2018-05-25T00:03:59.583Z,100681.06
2018-05-25T00:06:28.161Z,100688.12
2018-05-25T00:12:02.445Z,100688.12
2018-05-25T00:14:30.020Z,100684.11
2018-05-25T00:19:32.155Z,100689.77
2018-05-25T00:24:36.129Z,100696.05
2018-05-25T00:27:04.643Z,100695.74
2018-05-25T00:29:55.869Z,100694.97
2018-05-25T00:32:24.215Z,100701.41
2018-05-25T00:34:57.716Z,100694.42
2018-05-25T00:37:29.402Z,100690.38
2018-05-25T00:39:57.186Z,100696.55
2018-05-25T00:42:26.201Z,100689.23
2018-05-25T00:44:54.900Z,100690.04
2018-05-25T00:47:27.674Z,100682.69
2018-05-25T00:49:55.166Z,100689.53
2018-05-25T00:52:24.081Z,100690.27
2018-05-25T00:55:07.967Z,100687.00
2018-05-25T00:57:37.409Z,100685.48
2018-05-25T01:00:07.132Z,100686.08
2018-05-25T01:02:34.829Z,100685.74
2018-05-25T01:05:02.325Z,100686.62
2018-05-25T01:07:29.981Z,100684.59
2018-05-25T01:09:58.485Z,100689.37
2018-05-25T01:12:25.983Z,100687.21
2018-05-25T01:14:55.696Z,100683.43
2018-05-25T01:17:24.123Z,100679.65
2018-05-25T01:19:54.519Z,100683.45
2018-05-25T01:22:24.382Z,100679.25
2018-05-25T01:24:57.003Z,100675.13
2018-05-25T01:27:25.855Z,100677.22
2018-05-25T01:29:54.159Z,100669.62
2018-05-25T01:32:21.762Z,100667.43
2018-05-25T01:34:50.140Z,100665.38
2018-05-25T01:37:19.842Z,100663.22
2018-05-25T01:39:50.699Z,100667.83
2018-05-25T01:44:52.055Z,100676.86
2018-05-25T01:47:21.523Z,100674.36
2018-05-25T01:49:49.937Z,100677.08
2018-05-25T01:52:17.418Z,100680.25
2018-05-25T01:54:44.866Z,100673.46
2018-05-25T01:57:13.508Z,100672.70
2018-05-25T01:59:41.359Z,100673.31
2018-05-25T02:02:09.027Z,100669.70
2018-05-25T02:07:11.623Z,100672.89
2018-05-25T02:09:40.000Z,100672.42
2018-05-25T02:12:07.596Z,100671.55
2018-05-25T02:14:35.173Z,100669.53
2018-05-25T02:17:03.696Z,100670.31
2018-05-25T02:19:31.182Z,100666.22
2018-05-25T02:21:58.859Z,100668.41
2018-05-25T02:24:26.698Z,100669.38
2018-05-25T02:26:54.994Z,100671.54
2018-05-25T02:29:23.389Z,100672.59
2018-05-25T02:31:51.667Z,100673.19
2018-05-25T02:34:19.851Z,100674.96
2018-05-25T02:36:49.337Z,100680.44
2018-05-25T02:39:37.015Z,100680.14
2018-05-25T02:42:05.547Z,100681.97
2018-05-25T02:44:33.001Z,100676.58
2018-05-25T02:47:00.459Z,100674.75
2018-05-25T02:49:27.899Z,100672.30
2018-05-25T02:51:56.425Z,100673.05
2018-05-25T02:54:26.631Z,100666.73
2018-05-25T02:56:54.922Z,100667.53
2018-05-25T02:59:23.047Z,100673.48
2018-05-25T03:01:50.508Z,100673.00
2018-05-25T03:04:19.772Z,100670.70
2018-05-25T03:06:47.243Z,100671.14
2018-05-25T03:09:14.703Z,100670.23
2018-05-25T03:11:42.221Z,100674.98
2018-05-25T03:14:09.760Z,100674.27
2018-05-25T03:16:37.999Z,100671.89
2018-05-25T03:19:19.788Z,100673.42
2018-05-25T03:21:48.312Z,100673.08
2018-05-25T03:24:17.224Z,100676.20
2018-05-25T03:26:44.990Z,100681.81
2018-05-25T03:29:13.558Z,100676.09
2018-05-25T03:34:15.544Z,100670.03
2018-05-25T03:36:44.654Z,100682.31
2018-05-25T03:39:15.702Z,100678.73
2018-05-25T03:41:43.510Z,100680.25
2018-05-25T03:44:10.987Z,100674.09
2018-05-25T03:46:39.977Z,100674.95
2018-05-25T03:49:08.465Z,100680.20
2018-05-25T03:51:36.230Z,100678.44
2018-05-25T03:54:04.575Z,100677.80
2018-05-25T03:56:32.130Z,100673.06
2018-05-25T03:59:12.257Z,100668.30
2018-05-25T04:01:51.594Z,100663.56
2018-05-25T04:04:20.542Z,100659.13
2018-05-25T04:06:49.666Z,100670.47
2018-05-25T04:12:01.406Z,100672.76
2018-05-25T04:19:56.626Z,100669.58
2018-05-25T04:32:51.084Z,100676.27
2018-05-25T04:35:20.178Z,100674.84
2018-05-25T04:37:51.506Z,100675.48
2018-05-25T04:40:20.276Z,100681.24
2018-05-25T04:42:50.514Z,100678.09
2018-05-25T04:45:20.979Z,100677.22
2018-05-25T04:47:48.704Z,100677.47
2018-05-25T04:50:16.989Z,100673.44
2018-05-25T04:52:50.390Z,100676.55
2018-05-25T04:55:20.126Z,100673.68
2018-05-25T04:57:49.406Z,100672.81
2018-05-25T05:00:18.112Z,100674.66
2018-05-25T05:02:50.216Z,100674.07
2018-05-25T05:05:17.985Z,100676.28
2018-05-25T05:07:47.457Z,100681.04
2018-05-25T05:10:16.633Z,100681.08
2018-05-25T05:12:45.268Z,100675.25
2018-05-25T05:15:16.114Z,100678.15
2018-05-25T05:20:21.844Z,100677.64
2018-05-25T05:22:50.452Z,100681.28
2018-05-25T05:25:20.986Z,100682.98
2018-05-25T05:27:48.497Z,100683.22
2018-05-25T05:30:21.601Z,100685.42
2018-05-25T05:32:49.186Z,100691.20
2018-05-25T05:35:16.720Z,100690.39
2018-05-25T05:37:44.276Z,100692.14
2018-05-25T05:40:17.062Z,100698.63
2018-05-25T06:00:49.135Z,100702.45
2018-05-25T06:03:16.976Z,100696.25
2018-05-25T06:05:45.733Z,100697.10
2018-05-25T06:08:14.152Z,100694.62
2018-05-25T06:10:42.070Z,100694.49
2018-05-25T06:13:09.706Z,100693.12
2018-05-25T06:15:37.369Z,100699.59
2018-05-25T06:18:05.006Z,100689.69
2018-05-25T06:20:33.568Z,100693.40
2018-05-25T06:23:01.360Z,100691.81
2018-05-25T06:25:28.827Z,100687.16
2018-05-25T06:27:56.308Z,100689.69
2018-05-25T06:30:23.798Z,100687.06
2018-05-25T06:32:51.405Z,100680.73
2018-05-25T06:35:19.144Z,100681.95
2018-05-25T06:37:46.606Z,100687.64
2018-05-25T06:40:14.350Z,100695.23
2018-05-25T06:42:41.884Z,100689.03
2018-05-25T06:45:09.420Z,100695.13
2018-05-25T06:47:37.086Z,100710.47
2018-05-25T06:50:04.662Z,100712.25
2018-05-25T06:52:32.926Z,100709.94
2018-05-25T06:55:00.366Z,100714.75
2018-05-25T06:57:28.113Z,100711.19
2018-05-25T06:59:55.567Z,100709.40
2018-05-25T07:02:24.754Z,100710.61
2018-05-25T07:04:52.584Z,100704.61
2018-05-25T07:09:52.062Z,100712.30
2018-05-25T07:12:21.642Z,100709.91
2018-05-25T07:14:49.480Z,100712.80
2018-05-25T07:17:17.498Z,100713.08
2018-05-25T07:19:45.819Z,100715.67
2018-05-25T07:22:14.254Z,100716.44
2018-05-25T07:24:42.067Z,100717.99
2018-05-25T07:27:09.768Z,100714.11
2018-05-25T07:29:47.764Z,100722.50
2018-05-25T07:32:15.550Z,100718.69
2018-05-25T07:37:22.646Z,100722.56
2018-05-25T07:39:59.722Z,100727.76
2018-05-25T07:42:28.034Z,100729.91
2018-05-25T07:44:55.903Z,100733.40
2018-05-25T07:47:25.778Z,100728.13
2018-05-25T07:52:40.429Z,100717.76
2018-05-25T07:55:08.191Z,100730.39
2018-05-25T07:57:36.635Z,100722.05
2018-05-25T08:00:05.232Z,100718.90
2018-05-25T08:02:33.143Z,100722.13
2018-05-25T08:05:01.014Z,100718.16
2018-05-25T08:07:29.288Z,100732.64
2018-05-25T08:09:56.723Z,100721.91
2018-05-25T08:12:24.194Z,100726.44
2018-05-25T08:14:51.634Z,100722.22
2018-05-25T08:17:19.153Z,100726.81
2018-05-25T08:19:46.644Z,100718.65
2018-05-25T08:22:14.717Z,100717.67
2018-05-25T08:24:43.199Z,100723.08
2018-05-25T08:27:10.676Z,100718.78
2018-05-25T08:29:38.112Z,100725.98
2018-05-25T08:32:05.602Z,100720.84
2018-05-25T08:34:38.918Z,100722.27
2018-05-25T08:37:06.425Z,100724.81
2018-05-25T08:39:34.570Z,100724.70
2018-05-25T08:42:02.206Z,100729.70
2018-05-25T08:44:30.864Z,100719.92
2018-05-25T08:46:58.314Z,100716.95
2018-05-25T08:49:25.849Z,100712.36
2018-05-25T08:51:53.374Z,100721.21
2018-05-25T08:54:20.878Z,100712.91
2018-05-25T08:56:48.555Z,100723.86
2018-05-25T08:59:16.019Z,100725.13
2018-05-25T09:01:44.875Z,100711.34
2018-05-25T09:04:12.387Z,100708.80
2018-05-25T09:06:39.884Z,100719.38
2018-05-25T09:09:07.658Z,100717.30
2018-05-25T09:11:35.175Z,100718.40
2018-05-25T09:14:03.006Z,100718.39
2018-05-25T09:16:30.951Z,100712.72
2018-05-25T09:18:58.463Z,100705.82
2018-05-25T09:21:25.971Z,100709.84
2018-05-25T09:23:53.545Z,100699.61
2018-05-25T09:26:21.138Z,100707.98
2018-05-25T09:28:48.685Z,100707.36
2018-05-25T09:31:16.204Z,100712.41
2018-05-25T09:33:44.215Z,100712.42
2018-05-25T09:36:11.909Z,100706.38
2018-05-25T09:38:39.497Z,100714.18
2018-05-25T09:41:07.163Z,100711.88
2018-05-25T09:43:35.521Z,100708.34
2018-05-25T09:46:03.105Z,100713.98
2018-05-25T09:48:30.545Z,100703.14
2018-05-25T09:50:58.144Z,100705.98
2018-05-25T09:53:29.841Z,100709.86
2018-05-25T09:55:57.299Z,100719.26
2018-05-25T09:58:24.949Z,100711.97
2018-05-25T10:00:52.597Z,100713.59
2018-05-25T10:03:20.425Z,100708.11
2018-05-25T10:05:48.014Z,100708.78
2018-05-25T10:08:15.539Z,100710.80
2018-05-25T10:10:42.963Z,100706.59
2018-05-25T10:13:10.443Z,100701.94
2018-05-25T10:15:37.905Z,100700.55
2018-05-25T10:18:05.357Z,100697.06
2018-05-25T10:20:32.849Z,100696.52
2018-05-25T10:23:00.323Z,100705.88
2018-05-25T10:25:27.763Z,100690.43
2018-05-25T10:27:55.258Z,100692.89
2018-05-25T10:30:24.041Z,100686.09
2018-05-25T10:32:51.578Z,100695.53
2018-05-25T10:35:19.038Z,100692.43
2018-05-25T10:37:50.963Z,100695.87
2018-05-25T10:40:18.435Z,100700.92
2018-05-25T10:48:09.183Z,100669.17
2018-05-25T10:50:45.962Z,100685.53
2018-05-25T10:55:53.202Z,100677.99
2018-05-25T10:58:22.692Z,100685.07
2018-05-25T11:00:50.227Z,100673.44
2018-05-25T11:03:21.727Z,100675.30
2018-05-25T11:05:54.033Z,100662.90
2018-05-25T11:08:33.489Z,100670.92
2018-05-25T11:11:01.145Z,100672.89
2018-05-25T11:16:02.921Z,100658.34
2018-05-25T11:18:34.300Z,100653.19
2018-05-25T11:21:10.106Z,100660.78
2018-05-25T11:23:43.473Z,100660.41
2018-05-25T11:26:13.056Z,100649.29
2018-05-25T11:28:44.243Z,100654.44
2018-05-25T11:31:11.922Z,100650.87
2018-05-25T11:33:39.545Z,100653.77
2018-05-25T11:41:57.471Z,100652.48
2018-05-25T11:46:59.508Z,100646.89
2018-05-25T11:52:11.308Z,100636.71
2018-05-25T11:54:38.896Z,100645.42
2018-05-25T11:57:07.152Z,100645.92
2018-05-25T11:59:34.747Z,100636.72
2018-05-25T12:02:02.250Z,100639.50
2018-05-25T12:04:35.849Z,100642.78
2018-05-25T12:07:04.318Z,100635.16
2018-05-25T12:12:25.135Z,100628.59
2018-05-25T12:14:53.823Z,100618.94
2018-05-25T12:17:22.836Z,100624.80
2018-05-25T12:19:50.485Z,100633.02
2018-05-25T12:22:17.944Z,100634.39
2018-05-25T12:24:45.393Z,100619.55
2018-05-25T12:27:13.642Z,100622.48
2018-05-25T12:29:41.214Z,100627.94
2018-05-25T12:32:08.673Z,100620.71
2018-05-25T12:34:36.285Z,100633.39
2018-05-25T12:37:03.753Z,100624.11
2018-05-25T12:39:31.212Z,100623.07
2018-05-25T12:41:58.744Z,100624.69
2018-05-25T12:44:26.204Z,100619.47
2018-05-25T12:46:53.913Z,100616.60
2018-05-25T12:49:21.533Z,100615.05
2018-05-25T12:51:49.267Z,100601.95
2018-05-25T12:54:16.745Z,100603.13
2018-05-25T12:56:44.397Z,100606.84
2018-05-25T12:59:11.836Z,100611.33
2018-05-25T13:01:39.312Z,100610.13
2018-05-25T13:04:06.804Z,100601.54
2018-05-25T13:06:35.231Z,100600.34
2018-05-25T13:09:02.748Z,100593.53
2018-05-25T13:11:30.614Z,100598.60
2018-05-25T13:13:58.074Z,100585.08
2018-05-25T13:16:25.598Z,100592.13
2018-05-25T13:18:53.465Z,100591.56
2018-05-25T13:21:22.490Z,100594.31
2018-05-25T13:23:49.919Z,100593.16
2018-05-25T13:26:17.501Z,100586.70
2018-05-25T13:28:44.980Z,100582.98
2018-05-25T13:31:12.471Z,100590.39
2018-05-25T13:33:40.155Z,100591.39
2018-05-25T13:36:07.734Z,100585.74
2018-05-25T13:38:36.133Z,100581.22
2018-05-25T13:41:03.642Z,100583.97
2018-05-25T13:43:31.126Z,100574.96
2018-05-25T13:45:58.650Z,100575.53
2018-05-25T13:48:26.228Z,100576.14
2018-05-25T13:50:54.250Z,100569.46
2018-05-25T13:53:21.768Z,100574.56
2018-05-25T13:55:50.104Z,100561.81
2018-05-25T13:58:17.561Z,100566.11
2018-05-25T14:00:45.096Z,100577.43
2018-05-25T14:03:12.624Z,100568.66
2018-05-25T14:05:40.734Z,100574.56
2018-05-25T14:08:08.631Z,100569.66
2018-05-25T14:10:37.008Z,100571.83
2018-05-25T14:13:04.624Z,100572.59
2018-05-25T14:15:32.419Z,100563.58
2018-05-25T14:17:59.928Z,100578.23
2018-05-25T14:20:27.669Z,100568.25
2018-05-25T14:22:55.248Z,100565.51
2018-05-25T14:25:22.968Z,100560.98
2018-05-25T14:27:50.700Z,100569.19
2018-05-25T14:30:18.443Z,100563.72
2018-05-25T14:32:46.329Z,100563.88
2018-05-25T14:35:13.813Z,100571.95
2018-05-25T14:37:41.373Z,100556.53
2018-05-25T14:40:08.873Z,100566.52
2018-05-25T14:42:36.485Z,100558.14
2018-05-25T14:45:03.992Z,100562.82
2018-05-25T14:47:32.662Z,100567.13
2018-05-25T14:50:00.209Z,100562.63
2018-05-25T14:52:28.793Z,100564.99
2018-05-25T14:54:56.249Z,100556.98
2018-05-25T14:57:23.961Z,100558.55
2018-05-25T14:59:51.483Z,100563.84
2018-05-25T15:02:19.394Z,100560.33
2018-05-25T15:04:47.081Z,100557.00
2018-05-25T15:07:14.944Z,100552.91
2018-05-25T15:09:42.515Z,100565.20
2018-05-25T15:12:10.004Z,100556.38
2018-05-25T15:14:37.496Z,100560.30
2018-05-25T15:17:05.401Z,100553.25
2018-05-25T15:19:34.006Z,100558.05
2018-05-25T15:22:02.812Z,100561.92
2018-05-25T15:24:32.074Z,100550.56
2018-05-25T15:27:00.764Z,100549.19
2018-05-25T15:29:29.429Z,100548.95
2018-05-25T15:31:57.761Z,100550.31
2018-05-25T15:34:25.481Z,100547.70
2018-05-25T15:36:53.798Z,100555.86
2018-05-25T15:39:23.082Z,100547.03
2018-05-25T15:41:50.578Z,100545.32
2018-05-25T15:44:18.177Z,100551.34
2018-05-25T15:46:45.754Z,100549.39
2018-05-25T15:49:13.328Z,100547.59
2018-05-25T15:51:41.090Z,100550.28
2018-05-25T15:54:08.815Z,100554.71
2018-05-25T15:56:36.494Z,100551.00
2018-05-25T15:59:05.774Z,100552.16
2018-05-25T16:01:40.097Z,100541.22
2018-05-25T16:04:13.044Z,100546.88
2018-05-25T16:06:40.791Z,100547.84
2018-05-25T16:09:12.019Z,100539.67
2018-05-25T16:11:40.322Z,100541.84
2018-05-25T16:14:07.990Z,100539.47
2018-05-25T16:16:39.240Z,100538.73
2018-05-25T16:19:08.657Z,100538.73
2018-05-25T16:21:37.836Z,100540.86
2018-05-25T16:24:06.610Z,100543.36
2018-05-25T16:26:36.160Z,100550.16
2018-05-25T16:29:04.106Z,100546.64
2018-05-25T16:31:32.389Z,100544.28
2018-05-25T16:34:00.660Z,100536.47
2018-05-25T16:36:28.188Z,100542.31
2018-05-25T16:38:57.425Z,100546.02
2018-05-25T16:41:25.155Z,100549.09
2018-05-25T16:43:53.440Z,100545.60
2018-05-25T16:46:21.792Z,100547.91
2018-05-25T16:48:49.398Z,100548.71
2018-05-25T16:51:18.878Z,100545.91
2018-05-25T16:53:47.053Z,100546.45
2018-05-25T16:56:14.803Z,100550.73
2018-05-25T16:58:43.701Z,100545.05
2018-05-25T17:01:11.251Z,100551.88
2018-05-25T17:03:38.743Z,100554.83
2018-05-25T17:06:06.345Z,100554.77
2018-05-25T17:08:39.374Z,100553.06
2018-05-25T17:11:10.913Z,100558.67
2018-05-25T17:13:38.611Z,100563.75
2018-05-25T17:16:07.048Z,100560.84
2018-05-25T17:18:48.878Z,100559.64
2018-05-25T17:21:16.737Z,100558.49
2018-05-25T17:23:44.485Z,100567.81
2018-05-25T17:26:12.266Z,100567.98
2018-05-25T17:28:39.909Z,100564.47
2018-05-25T17:31:07.444Z,100569.16
2018-05-25T17:33:34.981Z,100567.41
2018-05-25T17:36:02.454Z,100564.45
2018-05-25T17:38:30.017Z,100574.55
2018-05-25T17:40:58.404Z,100568.87
2018-05-25T17:43:25.907Z,100569.02
2018-05-25T17:45:53.463Z,100566.43
2018-05-25T17:48:21.085Z,100564.69
2018-05-25T17:50:48.909Z,100562.55
2018-05-25T17:53:16.800Z,100566.85
2018-05-25T17:55:44.345Z,100565.48
2018-05-25T17:58:13.090Z,100565.26
2018-05-25T18:00:40.737Z,100564.67
2018-05-25T18:03:09.136Z,100569.33
2018-05-25T18:05:36.692Z,100568.53
2018-05-25T18:08:04.217Z,100569.67
2018-05-25T18:10:33.507Z,100567.77
2018-05-25T18:13:01.742Z,100570.86
2018-05-25T18:15:29.554Z,100573.95
2018-05-25T18:17:58.928Z,100574.90
2018-05-25T18:20:28.388Z,100570.43
2018-05-25T18:22:58.464Z,100570.22
2018-05-25T18:25:26.225Z,100574.08
2018-05-25T18:27:56.320Z,100574.44
2018-05-25T18:30:25.517Z,100572.28
2018-05-25T18:32:53.151Z,100568.39
2018-05-25T18:35:22.388Z,100571.52
2018-05-25T18:37:49.883Z,100576.73
2018-05-25T18:40:17.430Z,100575.58
2018-05-25T18:42:45.651Z,100579.45
2018-05-25T18:45:13.864Z,100584.24
2018-05-25T18:47:41.472Z,100583.44
2018-05-25T18:50:09.171Z,100586.92
2018-05-25T18:52:36.959Z,100588.86
2018-05-25T18:55:04.883Z,100590.19
2018-05-25T18:57:33.036Z,100595.62
2018-05-25T19:00:01.976Z,100595.78
2018-05-25T19:02:29.867Z,100596.14
2018-05-25T19:07:30.469Z,100599.03
2018-05-25T19:12:32.083Z,100605.19
2018-05-25T19:15:01.472Z,100605.72
2018-05-25T19:17:30.529Z,100604.52
2018-05-25T19:20:00.079Z,100609.55
2018-05-25T19:22:29.701Z,100611.66
2018-05-25T19:24:57.179Z,100608.75
2018-05-25T19:27:24.949Z,100620.73
2018-05-25T19:29:52.396Z,100618.98
2018-05-25T19:32:20.723Z,100626.72
2018-05-25T19:34:48.183Z,100624.88
2018-05-25T19:37:16.060Z,100631.69
2018-05-25T19:39:43.721Z,100639.61
2018-05-25T19:42:11.465Z,100642.66
2018-05-25T19:44:39.020Z,100647.27
2018-05-25T19:47:06.681Z,100644.30
2018-05-25T19:49:34.349Z,100645.05
2018-05-25T19:52:02.909Z,100653.03
2018-05-25T19:54:30.444Z,100655.13
2018-05-25T19:56:57.965Z,100651.98
2018-05-25T19:59:25.563Z,100657.95
2018-05-25T20:01:53.172Z,100656.56
2018-05-25T20:04:20.694Z,100658.67
2018-05-25T20:06:48.241Z,100658.86
2018-05-25T20:09:16.539Z,100656.88
2018-05-25T20:11:44.029Z,100653.97
2018-05-25T20:14:26.305Z,100656.26
2018-05-25T20:16:58.448Z,100663.99
2018-05-25T20:19:26.017Z,100660.87
2018-05-25T20:21:54.737Z,100657.94
2018-05-25T20:24:23.044Z,100654.97
2018-05-25T20:26:50.537Z,100663.06
2018-05-25T20:29:18.767Z,100655.47
2018-05-25T20:31:46.663Z,100656.36
2018-05-25T20:34:16.874Z,100665.48
2018-05-25T20:36:44.536Z,100660.31
2018-05-25T20:39:12.151Z,100663.92
2018-05-25T20:41:39.740Z,100664.66
2018-05-25T20:44:07.452Z,100659.84
2018-05-25T20:46:37.116Z,100665.25
2018-05-25T20:49:04.623Z,100664.81
2018-05-25T20:51:32.141Z,100668.43
2018-05-25T20:54:00.401Z,100673.91
2018-05-25T20:56:27.893Z,100670.02
2018-05-25T20:58:55.419Z,100668.64
2018-05-25T21:01:22.896Z,100672.28
2018-05-25T21:03:51.035Z,100669.72
2018-05-25T21:06:18.744Z,100669.02
2018-05-25T21:08:47.268Z,100672.36
2018-05-25T21:11:14.887Z,100675.23
2018-05-25T21:13:42.412Z,100679.48
2018-05-25T21:16:09.973Z,100674.61
2018-05-25T21:18:37.511Z,100677.06
2018-05-25T21:21:04.985Z,100671.11
2018-05-25T21:23:32.623Z,100675.19
2018-05-25T21:26:00.245Z,100676.40
2018-05-25T21:28:28.638Z,100680.80
2018-05-25T21:30:56.457Z,100682.34
2018-05-25T21:33:24.077Z,100684.28
2018-05-25T21:35:52.669Z,100690.08
2018-05-25T21:38:20.341Z,100686.19
2018-05-25T21:40:48.639Z,100685.27
2018-05-25T21:43:16.135Z,100681.44
2018-05-25T21:45:44.552Z,100685.62
2018-05-25T21:48:12.244Z,100692.51
2018-05-25T21:50:39.902Z,100693.14
2018-05-25T21:53:07.363Z,100698.34
2018-05-25T21:55:34.880Z,100711.47
2018-05-25T21:58:02.431Z,100707.48
2018-05-25T22:00:30.131Z,100726.58
2018-05-25T22:02:58.567Z,100718.45
2018-05-25T22:05:26.015Z,100716.09
2018-05-25T22:07:53.485Z,100719.77
2018-05-25T22:10:20.969Z,100733.42
2018-05-25T22:12:48.749Z,100737.51
2018-05-25T22:15:16.218Z,100737.09
2018-05-25T22:17:43.702Z,100736.64
2018-05-25T22:20:11.647Z,100737.33
2018-05-25T22:22:39.091Z,100739.91
2018-05-25T22:25:06.561Z,100740.00
2018-05-25T22:27:34.023Z,100733.30
2018-05-25T22:30:15.829Z,100730.41
2018-05-25T22:32:43.381Z,100727.83
2018-05-25T22:35:10.869Z,100727.97
2018-05-25T22:37:38.327Z,100726.16
2018-05-25T22:40:15.411Z,100725.80
2018-05-25T22:42:54.590Z,100724.39
2018-05-25T22:45:33.790Z,100719.26
2018-05-25T22:48:12.885Z,100723.23
2018-05-25T22:50:51.969Z,100720.33
2018-05-25T22:53:24.593Z,100722.51
2018-05-25T22:55:52.052Z,100718.44
2018-05-25T22:58:19.496Z,100719.16
2018-05-25T23:00:46.956Z,100720.95
2018-05-25T23:03:14.513Z,100728.87
2018-05-25T23:05:42.032Z,100723.22
2018-05-25T23:08:10.205Z,100719.77
2018-05-25T23:10:37.682Z,100719.77
2018-05-25T23:13:06.186Z,100724.95
2018-05-25T23:15:34.478Z,100716.20
2018-05-25T23:18:03.005Z,100716.73
2018-05-25T23:20:30.490Z,100719.63
2018-05-25T23:22:57.960Z,100723.02
2018-05-25T23:25:25.422Z,100718.20
2018-05-25T23:27:52.870Z,100722.71
2018-05-25T23:30:20.389Z,100722.47
2018-05-25T23:32:47.839Z,100714.38
2018-05-25T23:35:16.154Z,100716.94
2018-05-25T23:37:43.728Z,100721.83
2018-05-25T23:40:11.237Z,100719.44
2018-05-25T23:42:38.732Z,100719.13
2018-05-25T23:45:07.320Z,100715.08
2018-05-25T23:50:29.188Z,100716.72
2018-05-25T23:52:57.500Z,100720.16
2018-05-25T23:55:25.766Z,100715.97
2018-05-25T23:57:53.279Z,100717.44
